Time;durP1;ratioP1;P1;durP2;ratioP2;P2;SDS_P1;SDS_P2;PMS_P1;PMS_P2;Temp;Humidity;BMP_temperature;BMP_pressure;BME280_temperature;BME280_humidity;BME280_pressure;Samples;Min_cycle;Max_cycle;Signal;HPM_P1;HPM_P2
2023/01/10 00:00:35;;;;;;;2.47;1.10;;;;;;;4.89;100.00;99821.78;4994506;28;20065;-76
2023/01/10 00:03:07;;;;;;;4.50;1.30;;;;;;;5.01;100.00;99832.31;5001403;28;20493;-77
2023/01/10 00:05:33;;;;;;;2.95;1.25;;;;;;;5.13;100.00;99838.47;4993928;28;20070;-77
2023/01/10 00:08:00;;;;;;;3.42;1.08;;;;;;;5.22;100.00;99839.41;4990617;28;20042;-76
2023/01/10 00:10:26;;;;;;;3.80;1.80;;;;;;;5.27;100.00;99834.19;4994450;28;20030;-77
2023/01/10 00:15:36;;;;;;;4.28;1.60;;;;;;;5.36;100.00;99843.81;4992146;28;20038;-77
2023/01/10 00:18:02;;;;;;;2.80;1.50;;;;;;;5.41;100.00;99834.25;4993548;28;20065;-76
2023/01/10 00:20:28;;;;;;;3.05;1.30;;;;;;;5.42;100.00;99838.59;4994200;28;20065;-76
2023/01/10 00:22:53;;;;;;;4.35;1.50;;;;;;;5.48;100.00;99849.09;5046476;23;20042;-75
2023/01/10 00:25:20;;;;;;;5.88;1.70;;;;;;;5.52;100.00;99850.84;4995543;28;20049;-75
2023/01/10 00:27:48;;;;;;;2.38;1.05;;;;;;;5.56;100.00;99852.63;4995342;28;20061;-75
2023/01/10 00:30:14;;;;;;;4.70;1.27;;;;;;;5.59;100.00;99857.84;4996061;28;20668;-75
2023/01/10 00:32:43;;;;;;;3.78;1.42;;;;;;;5.66;100.00;99867.50;4994238;28;20062;-77
2023/01/10 00:35:10;;;;;;;3.72;1.67;;;;;;;5.76;100.00;99873.59;4995928;28;20045;-77
2023/01/10 00:37:36;;;;;;;3.47;1.50;;;;;;;5.80;100.00;99878.00;4994685;28;20065;-77
2023/01/10 00:40:03;;;;;;;4.28;1.30;;;;;;;5.89;100.00;99877.13;4995706;28;20077;-77
2023/01/10 00:45:12;;;;;;;4.07;1.50;;;;;;;6.03;100.00;99891.19;4992739;28;20042;-77
2023/01/10 00:47:37;;;;;;;2.78;1.20;;;;;;;6.08;100.00;99899.06;4995020;28;20064;-77
2023/01/10 00:50:07;;;;;;;3.42;1.58;;;;;;;6.13;100.00;99911.28;4995441;28;20034;-77
2023/01/10 00:52:33;;;;;;;2.28;1.30;;;;;;;6.10;100.00;99913.91;4995385;28;20452;-77
2023/01/10 00:54:58;;;;;;;3.40;1.45;;;;;;;6.18;100.00;99916.53;4995296;28;20038;-77
2023/01/10 00:57:23;;;;;;;3.58;1.58;;;;;;;6.21;100.00;99916.56;4994767;28;20034;-77
2023/01/10 00:59:49;;;;;;;4.78;1.80;;;;;;;6.26;100.00;99916.53;4995017;28;20042;-77
2023/01/10 01:02:14;;;;;;;3.80;1.42;;;;;;;6.28;100.00;99933.13;4994040;28;20053;-77
2023/01/10 01:04:39;;;;;;;3.67;1.30;;;;;;;6.27;100.00;99932.28;4993199;28;20096;-77
2023/01/10 01:07:05;;;;;;;3.75;1.30;;;;;;;6.31;100.00;99944.53;4999882;28;20773;-76
2023/01/10 01:09:30;;;;;;;4.50;1.60;;;;;;;6.29;100.00;99935.78;4993845;28;20121;-77
2023/01/10 01:11:55;;;;;;;3.30;1.55;;;;;;;6.31;100.00;99941.91;4994048;28;20489;-77
2023/01/10 01:14:22;;;;;;;4.13;1.50;;;;;;;6.28;100.00;99941.00;4993778;28;20065;-77
2023/01/10 01:16:47;;;;;;;4.28;1.67;;;;;;;6.30;100.00;99947.13;4993674;28;20473;-77
2023/01/10 01:19:13;;;;;;;3.60;1.65;;;;;;;6.30;100.00;99957.63;5001183;28;20096;-77
2023/01/10 01:21:38;;;;;;;3.60;1.80;;;;;;;6.31;100.00;99964.59;4993759;28;20092;-76
2023/01/10 01:24:04;;;;;;;3.45;1.23;;;;;;;6.33;100.00;99974.19;4993446;28;20034;-77
2023/01/10 01:26:29;;;;;;;5.97;1.52;;;;;;;6.37;100.00;99969.88;4991805;28;20042;-76
2023/01/10 01:28:54;;;;;;;3.60;1.30;;;;;;;6.45;100.00;99978.63;4991965;28;20042;-77
2023/01/10 01:31:20;;;;;;;3.47;1.63;;;;;;;6.45;100.00;99977.75;4991680;28;20118;-77
2023/01/10 01:33:45;;;;;;;3.13;1.27;;;;;;;6.44;100.00;99992.56;4989116;28;20061;-76
2023/01/10 01:36:11;;;;;;;3.30;1.30;;;;;;;6.44;100.00;99995.19;4992200;28;20477;-76
2023/01/10 01:38:39;;;;;;;2.38;1.20;;;;;;;6.51;100.00;99999.59;4989820;28;20448;-76
2023/01/10 01:41:55;;;;;;;5.10;1.23;;;;;;;6.54;100.00;100004.81;4992972;28;20034;-76
2023/01/10 01:44:03;;;;;;;3.08;1.38;;;;;;;6.59;100.00;100008.34;4989906;28;20092;-76
2023/01/10 01:46:30;;;;;;;4.63;1.45;;;;;;;6.66;100.00;100005.75;4992267;28;20049;-76
2023/01/10 01:48:55;;;;;;;5.20;1.63;;;;;;;6.71;99.86;100011.88;4988314;28;20433;-76
2023/01/10 01:51:25;;;;;;;4.53;2.08;;;;;;;6.66;99.82;100016.22;4991865;28;20022;-77
2023/01/10 01:54:00;;;;;;;3.15;1.40;;;;;;;6.66;99.79;100024.09;4992635;28;20041;-77
2023/01/10 01:56:30;;;;;;;2.70;1.30;;;;;;;6.65;100.00;100027.56;4992180;28;20398;-77
2023/01/10 01:59:01;;;;;;;4.82;1.60;;;;;;;6.62;100.00;100027.56;4992994;28;20436;-77
2023/01/10 02:01:28;;;;;;;4.40;1.73;;;;;;;6.55;100.00;100030.19;4992871;28;20177;-77
2023/01/10 02:04:01;;;;;;;5.47;1.55;;;;;;;6.56;100.00;100033.69;4993048;28;20405;-77
2023/01/10 02:06:26;;;;;;;2.75;1.23;;;;;;;6.52;100.00;100038.06;4990784;28;20057;-77
2023/01/10 02:09:15;;;;;;;3.95;1.50;;;;;;;6.55;100.00;100037.19;4990366;28;20485;-76
2023/01/10 02:11:40;;;;;;;3.65;1.55;;;;;;;6.55;100.00;100045.91;4990323;28;20041;-77
2023/01/10 02:14:08;;;;;;;3.83;1.25;;;;;;;6.62;100.00;100043.31;4992521;28;20046;-77
2023/01/10 02:16:33;;;;;;;4.45;1.90;;;;;;;6.62;99.94;100043.31;4992131;28;20441;-77
2023/01/10 02:18:59;;;;;;;5.07;2.08;;;;;;;6.62;99.84;100052.03;4992435;28;20088;-77
2023/01/10 02:21:51;;;;;;;2.70;1.35;;;;;;;6.55;99.88;100035.44;4988606;28;20540;-77
2023/01/10 02:24:43;;;;;;;4.60;1.50;;;;;;;6.49;100.00;100038.03;4989328;28;20080;-77
2023/01/10 02:27:18;;;;;;;7.68;1.73;;;;;;;6.52;100.00;100048.53;4989050;28;20120;-77
2023/01/10 02:30:31;;;;;;;5.72;1.95;;;;;;;6.46;100.00;100052.88;4991109;28;20050;-77
2023/01/10 02:33:05;;;;;;;8.52;2.10;;;;;;;6.45;100.00;100062.50;4977631;28;20496;-77
2023/01/10 02:35:42;;;;;;;6.00;1.92;;;;;;;6.46;100.00;100058.13;4988386;28;20058;-77
2023/01/10 02:38:29;;;;;;;4.18;1.90;;;;;;;6.47;100.00;100063.38;4988935;28;20458;-77
2023/01/10 02:41:27;;;;;;;6.78;2.63;;;;;;;6.51;100.00;100057.25;4990845;28;20488;-77
2023/01/10 02:44:02;;;;;;;5.03;2.22;;;;;;;6.55;100.00;100074.75;4991826;28;20133;-77
2023/01/10 02:46:30;;;;;;;5.18;2.13;;;;;;;6.57;100.00;100078.25;4989149;28;20109;-77
2023/01/10 02:48:55;;;;;;;8.45;2.40;;;;;;;6.53;100.00;100084.38;4992043;28;20138;-77
2023/01/10 02:51:23;;;;;;;6.00;2.00;;;;;;;6.57;100.00;100082.63;4992177;28;20109;-77
2023/01/10 02:54:24;;;;;;;6.82;2.13;;;;;;;6.65;100.00;100087.88;4992030;28;20034;-77
2023/01/10 02:57:08;;;;;;;5.68;2.35;;;;;;;6.68;100.00;100093.13;4990530;28;20481;-77
2023/01/10 03:00:00;;;;;;;4.85;2.10;;;;;;;6.61;100.00;100091.38;4987827;28;20515;-76
2023/01/10 03:02:34;;;;;;;7.40;2.05;;;;;;;6.61;100.00;100100.13;4985982;28;20512;-77
2023/01/10 03:05:25;;;;;;;6.38;2.00;;;;;;;6.61;100.00;100096.63;4991578;28;20026;-77
2023/01/10 03:08:01;;;;;;;6.55;2.20;;;;;;;6.57;100.00;100099.22;4990502;28;20069;-77
2023/01/10 03:10:52;;;;;;;5.80;2.28;;;;;;;6.64;100.00;100109.75;4989407;28;20441;-77
2023/01/10 03:13:20;;;;;;;4.97;2.30;;;;;;;6.66;100.00;100114.13;4989438;28;20456;-77
2023/01/10 03:15:48;;;;;;;4.70;2.22;;;;;;;6.64;100.00;100115.00;4989855;28;20085;-77
2023/01/10 03:18:21;;;;;;;5.65;1.85;;;;;;;6.62;100.00;100124.59;4991649;28;20095;-76
2023/01/10 03:20:49;;;;;;;4.22;2.00;;;;;;;6.54;100.00;100133.28;4991667;28;20501;-77
2023/01/10 03:23:16;;;;;;;4.13;2.33;;;;;;;6.50;100.00;100134.16;4989715;28;20038;-77
2023/01/10 03:25:43;;;;;;;5.30;2.70;;;;;;;6.49;100.00;100136.78;4991189;28;20043;-77
2023/01/10 03:28:11;;;;;;;5.47;1.95;;;;;;;6.42;100.00;100135.88;4994951;28;20643;-77
2023/01/10 03:30:54;;;;;;;5.20;2.00;;;;;;;6.35;100.00;100144.59;4995847;28;20038;-77
2023/01/10 03:33:27;;;;;;;;;;;;;;;6.19;100.00;100148.88;4995456;28;20046;-76
2023/01/10 03:35:56;;;;;;;;;;;;;;;6.06;100.00;100149.69;4994918;28;19920;-77
2023/01/10 03:38:47;;;;;;;4.07;2.15;;;;;;;6.00;100.00;100161.00;4991416;28;20000;-77
2023/01/10 03:41:22;;;;;;;5.75;2.67;;;;;;;5.93;100.00;100167.91;4994789;28;20519;-76
2023/01/10 03:47:04;;;;;;;6.88;2.90;;;;;;;5.90;100.00;100175.72;4992306;28;20069;-77
2023/01/10 03:49:31;;;;;;;6.07;2.50;;;;;;;5.93;100.00;100178.41;4992610;28;20394;-77
2023/01/10 03:51:57;;;;;;;8.00;3.20;;;;;;;5.93;100.00;100182.72;4995196;28;20069;-77
2023/01/10 03:54:23;;;;;;;7.45;2.53;;;;;;;5.99;100.00;100195.03;4995016;28;20451;-77
2023/01/10 03:56:50;;;;;;;7.72;2.67;;;;;;;6.03;100.00;100194.19;4993685;28;20125;-77
2023/01/10 03:59:19;;;;;;;6.60;2.35;;;;;;;6.09;100.00;100208.19;4995305;28;20108;-77
2023/01/10 04:01:44;;;;;;;7.13;3.10;;;;;;;6.13;100.00;100207.38;4994783;28;20070;-77
2023/01/10 04:04:10;;;;;;;8.05;3.38;;;;;;;6.11;100.00;100223.94;4995002;28;20061;-76
2023/01/10 04:06:35;;;;;;;9.07;3.03;;;;;;;6.15;100.00;100223.94;4991032;28;20066;-77
2023/01/10 04:09:01;;;;;;;5.75;2.72;;;;;;;6.15;100.00;100229.19;4994181;28;20034;-76
2023/01/10 04:11:26;;;;;;;6.05;2.22;;;;;;;6.20;100.00;100228.34;4994335;28;20496;-76
2023/01/10 04:13:51;;;;;;;8.07;2.67;;;;;;;6.22;100.00;100239.72;4994276;28;20065;-76
2023/01/10 04:16:17;;;;;;;6.75;2.53;;;;;;;6.24;100.00;100246.75;4993761;28;20378;-77
2023/01/10 04:18:42;;;;;;;7.40;2.65;;;;;;;6.28;100.00;100252.88;4994329;28;20049;-76
2023/01/10 04:21:07;;;;;;;9.15;2.63;;;;;;;6.28;100.00;100252.88;4993979;28;20031;-77
2023/01/10 04:23:33;;;;;;;6.68;2.58;;;;;;;6.30;100.00;100267.75;4994282;28;20091;-77
2023/01/10 04:25:58;;;;;;;7.15;3.17;;;;;;;6.32;100.00;100267.75;4994316;28;20133;-77
2023/01/10 04:28:23;;;;;;;6.55;2.30;;;;;;;6.35;100.00;100273.03;4994681;28;20042;-77
2023/01/10 04:30:49;;;;;;;9.43;2.90;;;;;;;6.36;100.00;100280.88;4994452;28;20042;-76
2023/01/10 04:33:14;;;;;;;7.63;2.60;;;;;;;6.37;100.00;100287.03;4994220;28;20039;-77
2023/01/10 04:35:39;;;;;;;4.43;1.80;;;;;;;6.42;100.00;100289.66;4994242;28;20047;-77
2023/01/10 04:38:05;;;;;;;5.72;2.45;;;;;;;6.41;100.00;100294.03;4989631;28;20043;-76
2023/01/10 04:40:30;;;;;;;6.60;2.22;;;;;;;6.37;100.00;100294.88;5001473;28;20053;-77
2023/01/10 04:42:55;;;;;;;6.75;3.40;;;;;;;6.25;100.00;100306.13;4991396;28;20041;-77
2023/01/10 04:45:21;;;;;;;6.85;2.25;;;;;;;6.28;100.00;100316.63;4992217;28;20042;-77
2023/01/10 04:47:50;;;;;;;6.35;2.55;;;;;;;6.26;100.00;100320.13;4992616;28;20093;-77
2023/01/10 04:50:15;;;;;;;6.63;2.63;;;;;;;6.26;100.00;100320.13;4993729;28;20073;-76
2023/01/10 04:52:42;;;;;;;8.30;3.03;;;;;;;6.21;100.00;100319.19;4993950;28;20113;-77
2023/01/10 04:55:08;;;;;;;7.03;3.08;;;;;;;6.20;100.00;100325.31;4986408;28;20038;-77
2023/01/10 04:57:34;;;;;;;6.85;3.10;;;;;;;6.10;100.00;100333.13;4995089;28;20070;-77
2023/01/10 04:59:59;;;;;;;6.97;2.63;;;;;;;6.05;100.00;100340.06;4993080;28;20030;-77
2023/01/10 05:02:24;;;;;;;10.38;3.22;;;;;;;5.97;100.00;100343.44;5010430;28;20505;-77
2023/01/10 05:04:49;;;;;;;7.07;3.08;;;;;;;5.94;100.00;100346.91;4995547;28;20521;-77
2023/01/10 05:07:15;;;;;;;6.65;3.03;;;;;;;5.93;100.00;100350.38;4991607;28;20402;-77
2023/01/10 05:09:41;;;;;;;8.07;2.95;;;;;;;5.85;100.00;100349.44;4994464;28;20485;-77
2023/01/10 05:12:07;;;;;;;8.43;3.15;;;;;;;5.80;100.00;100356.34;4992450;28;20049;-77
2023/01/10 05:14:33;;;;;;;6.50;2.67;;;;;;;5.74;100.00;100365.03;4995110;28;20122;-76
2023/01/10 05:16:58;;;;;;;7.88;2.72;;;;;;;5.71;100.00;100358.00;4994385;28;20465;-77
2023/01/10 05:19:23;;;;;;;7.43;3.17;;;;;;;5.74;100.00;100369.38;4995220;28;20030;-76
2023/01/10 05:21:50;;;;;;;4.82;2.53;;;;;;;5.75;100.00;100368.53;4992978;28;20564;-77
2023/01/10 05:24:16;;;;;;;7.25;2.80;;;;;;;5.69;100.00;100371.94;4993739;28;20117;-77
2023/01/10 05:26:42;;;;;;;7.18;3.28;;;;;;;5.69;100.00;100380.69;4989960;28;20613;-77
2023/01/10 05:29:09;;;;;;;9.30;3.35;;;;;;;5.70;100.00;100382.44;4995317;28;20413;-77
2023/01/10 05:31:35;;;;;;;5.78;2.83;;;;;;;5.69;100.00;100393.78;4995063;28;20042;-76
2023/01/10 05:34:01;;;;;;;8.40;3.97;;;;;;;5.66;100.00;100398.97;4995101;28;20049;-76
2023/01/10 05:36:26;;;;;;;7.88;3.17;;;;;;;5.68;100.00;100401.59;4991529;28;20062;-77
2023/01/10 05:38:52;;;;;;;5.97;3.42;;;;;;;5.74;100.00;100406.03;4990692;28;20112;-76
2023/01/10 05:41:17;;;;;;;7.20;3.22;;;;;;;5.75;100.00;100408.66;4993169;28;20038;-76
2023/01/10 05:43:43;;;;;;;8.25;3.30;;;;;;;5.72;100.00;100409.50;4993439;28;20026;-76
2023/01/10 05:46:08;;;;;;;13.48;4.07;;;;;;;5.72;100.00;100411.25;4992807;28;20448;-77
2023/01/10 05:48:33;;;;;;;10.38;3.78;;;;;;;5.76;100.00;100414.78;4994254;28;20049;-77
2023/01/10 05:50:59;;;;;;;7.90;3.00;;;;;;;5.80;100.00;100424.44;4993532;28;20037;-77
2023/01/10 05:53:24;;;;;;;5.63;2.70;;;;;;;5.81;100.00;100424.44;4993602;28;20081;-76
2023/01/10 05:56:00;;;;;;;5.18;2.97;;;;;;;5.81;100.00;100429.69;4992295;28;20041;-77
2023/01/10 05:58:26;;;;;;;6.30;3.35;;;;;;;5.82;100.00;100425.34;4987991;28;20037;-77
2023/01/10 06:00:53;;;;;;;9.15;3.08;;;;;;;5.82;100.00;100435.81;4991333;28;20060;-77
2023/01/10 06:03:19;;;;;;;8.63;3.33;;;;;;;5.82;100.00;100441.94;4988479;28;20049;-77
2023/01/10 06:05:44;;;;;;;5.78;2.90;;;;;;;5.85;100.00;100447.19;4991119;28;20481;-77
2023/01/10 06:08:09;;;;;;;8.30;3.00;;;;;;;5.86;100.00;100458.56;4992931;28;20030;-76
2023/01/10 06:10:35;;;;;;;10.05;3.15;;;;;;;5.95;100.00;100473.53;4992436;28;20053;-76
2023/01/10 06:13:00;;;;;;;7.80;3.20;;;;;;;5.98;100.00;100474.47;4993697;28;20025;-78
2023/01/10 06:15:26;;;;;;;9.32;3.20;;;;;;;6.03;100.00;100478.00;4993820;28;20116;-77
2023/01/10 06:17:52;;;;;;;8.27;3.28;;;;;;;6.04;100.00;100478.88;4993833;28;20073;-78
2023/01/10 06:20:18;;;;;;;6.03;3.17;;;;;;;6.11;100.00;100481.59;4994650;28;20038;-77
2023/01/10 06:22:43;;;;;;;7.95;3.47;;;;;;;6.17;100.00;100485.16;4994553;28;20088;-77
2023/01/10 06:25:10;;;;;;;7.95;4.15;;;;;;;6.11;100.00;100494.69;4993802;28;20382;-78
2023/01/10 06:27:39;;;;;;;10.88;3.55;;;;;;;6.08;100.00;100492.03;4993952;28;20039;-77
2023/01/10 06:30:04;;;;;;;9.52;3.88;;;;;;;6.08;100.00;100501.66;4994120;28;20045;-77
2023/01/10 06:32:30;;;;;;;6.00;3.13;;;;;;;6.09;100.00;100506.88;4994129;28;20031;-77
2023/01/10 06:34:55;;;;;;;9.20;3.88;;;;;;;6.06;100.00;100506.00;4994714;28;20041;-77
2023/01/10 06:37:21;;;;;;;8.50;3.38;;;;;;;6.02;100.00;100512.91;4991108;28;20058;-77
2023/01/10 06:39:46;;;;;;;8.20;3.55;;;;;;;6.01;100.00;100516.41;4994029;28;20038;-78
2023/01/10 06:42:12;;;;;;;9.73;3.40;;;;;;;6.01;100.00;100524.25;4993234;28;20049;-77
2023/01/10 06:44:37;;;;;;;11.63;3.88;;;;;;;5.98;100.00;100526.84;4993177;28;20069;-78
2023/01/10 06:47:02;;;;;;;9.32;3.55;;;;;;;5.95;100.00;100532.06;4993963;28;20065;-77
2023/01/10 06:49:28;;;;;;;8.95;3.90;;;;;;;5.95;100.00;100532.06;4994868;28;20110;-78
2023/01/10 06:51:54;;;;;;;7.30;3.70;;;;;;;5.84;100.00;100544.09;4994789;28;20041;-78
2023/01/10 06:54:19;;;;;;;9.90;3.90;;;;;;;5.80;100.00;100551.03;4994712;28;20042;-77
2023/01/10 06:56:47;;;;;;;8.32;4.30;;;;;;;5.76;100.00;100557.06;4993978;28;20038;-77
2023/01/10 06:59:12;;;;;;;7.28;3.53;;;;;;;5.69;100.00;100566.59;4994199;28;20034;-77
2023/01/10 07:01:37;;;;;;;7.15;3.75;;;;;;;5.67;100.00;100573.53;4993827;28;20500;-77
2023/01/10 07:04:03;;;;;;;8.07;3.78;;;;;;;5.67;100.00;100573.53;4998298;28;20446;-77
2023/01/10 07:06:28;;;;;;;6.25;3.65;;;;;;;5.65;100.00;100583.09;4997018;28;20022;-77
2023/01/10 07:08:54;;;;;;;7.88;4.18;;;;;;;5.63;100.00;100589.19;4997556;28;20037;-77
2023/01/10 07:11:19;;;;;;;7.30;4.13;;;;;;;5.62;100.00;100590.03;4998355;28;20113;-78
2023/01/10 07:13:44;;;;;;;7.40;3.25;;;;;;;5.62;100.00;100593.53;4997940;28;20030;-78
2023/01/10 07:16:13;;;;;;;5.65;2.38;;;;;;;5.62;100.00;100601.41;4997557;28;20034;-77
2023/01/10 07:18:40;;;;;;;8.13;2.88;;;;;;;5.66;100.00;100604.97;4993289;28;20077;-77
2023/01/10 07:21:06;;;;;;;7.85;3.20;;;;;;;5.67;100.00;100604.97;4996771;28;20501;-77
2023/01/10 07:23:31;;;;;;;6.07;2.80;;;;;;;5.69;100.00;100613.72;4997738;28;20089;-77
2023/01/10 07:25:58;;;;;;;7.15;3.10;;;;;;;5.69;100.00;100624.22;4997675;28;20050;-78
2023/01/10 07:28:23;;;;;;;6.75;2.88;;;;;;;5.70;100.00;100615.47;4997756;28;20035;-77
2023/01/10 07:30:49;;;;;;;6.65;2.70;;;;;;;5.71;100.00;100624.22;4997628;28;20034;-77
2023/01/10 07:33:14;;;;;;;7.55;3.60;;;;;;;5.71;100.00;100632.97;4997988;28;20042;-78
2023/01/10 07:35:40;;;;;;;6.03;3.03;;;;;;;5.74;100.00;100628.63;4996619;28;20872;-78
2023/01/10 07:38:05;;;;;;;7.90;3.15;;;;;;;5.75;100.00;100639.13;4993705;28;20042;-77
2023/01/10 07:40:30;;;;;;;8.70;3.50;;;;;;;5.72;100.00;100644.31;4998265;28;20038;-77
2023/01/10 07:43:00;;;;;;;7.53;2.90;;;;;;;5.75;100.00;100644.38;5005021;28;20141;-77
2023/01/10 07:45:26;;;;;;;6.13;2.58;;;;;;;5.78;100.00;100651.38;4997206;28;20110;-77
2023/01/10 07:47:59;;;;;;;9.70;3.67;;;;;;;5.79;100.00;100647.91;4997363;28;20378;-77
2023/01/10 07:50:26;;;;;;;7.85;2.97;;;;;;;5.81;100.00;100659.28;4997458;28;20606;-77
2023/01/10 07:52:52;;;;;;;7.40;3.30;;;;;;;5.79;100.00;100650.50;4997280;28;20064;-77
2023/01/10 07:55:17;;;;;;;8.95;3.00;;;;;;;5.82;100.00;100658.44;4994242;28;20042;-77
2023/01/10 07:57:43;;;;;;;9.13;3.80;;;;;;;5.85;100.00;100661.97;4996283;28;20069;-77
2023/01/10 08:00:09;;;;;;;8.77;3.40;;;;;;;5.84;100.00;100667.19;4997124;28;20088;-77
2023/01/10 08:02:35;;;;;;;8.25;4.18;;;;;;;5.85;100.00;100664.59;4995676;28;20477;-77
2023/01/10 08:05:00;;;;;;;17.15;7.30;;;;;;;5.88;100.00;100671.63;4993596;28;20052;-77
2023/01/10 08:07:28;;;;;;;8.48;4.05;;;;;;;5.91;100.00;100676.91;5002943;28;20133;-77
2023/01/10 08:09:53;;;;;;;5.93;3.05;;;;;;;5.93;100.00;100672.56;4997059;28;20099;-77
2023/01/10 08:12:20;;;;;;;7.95;4.13;;;;;;;5.92;100.00;100690.03;4996978;28;20042;-77
2023/01/10 08:14:45;;;;;;;6.45;3.20;;;;;;;5.85;100.00;100692.53;4997264;28;20117;-77
2023/01/10 08:17:10;;;;;;;7.82;3.08;;;;;;;5.96;100.00;100691.00;4996453;28;20155;-77
2023/01/10 08:19:35;;;;;;;7.20;2.72;;;;;;;6.07;100.00;100686.78;4997037;28;20065;-77
2023/01/10 08:22:02;;;;;;;9.18;3.08;;;;;;;6.15;100.00;100697.38;4996465;28;20436;-77
2023/01/10 08:24:27;;;;;;;4.45;1.38;;;;;;;6.20;100.00;100697.44;4995688;28;20094;-77
2023/01/10 08:26:52;;;;;;;4.30;1.88;;;;;;;6.24;100.00;100707.13;4994788;28;20070;-77
2023/01/10 08:29:18;;;;;;;3.78;1.77;;;;;;;6.27;100.00;100707.16;4997256;28;20097;-77
2023/01/10 08:31:43;;;;;;;4.43;2.05;;;;;;;6.35;100.00;100721.25;4996574;28;20026;-77
2023/01/10 08:34:09;;;;;;;4.43;2.33;;;;;;;6.36;100.00;100712.53;4996159;28;20034;-77
2023/01/10 08:36:34;;;;;;;5.22;2.22;;;;;;;6.37;100.00;100730.03;4992567;28;20449;-77
2023/01/10 08:38:59;;;;;;;2.95;1.48;;;;;;;6.41;100.00;100721.34;4996117;28;20489;-77
2023/01/10 08:41:24;;;;;;;6.32;2.08;;;;;;;6.38;100.00;100728.28;4996732;28;20042;-77
2023/01/10 08:43:51;;;;;;;5.03;2.10;;;;;;;6.49;100.00;100731.94;5003102;28;20061;-77
2023/01/10 08:46:19;;;;;;;6.40;1.58;;;;;;;6.51;100.00;100745.94;4995855;28;20061;-77
2023/01/10 08:48:44;;;;;;;3.78;1.65;;;;;;;6.54;100.00;100741.63;4994762;28;20073;-77
2023/01/10 08:51:09;;;;;;;3.72;2.05;;;;;;;6.57;100.00;100754.75;4996084;28;20038;-77
2023/01/10 08:53:35;;;;;;;5.75;1.95;;;;;;;6.48;100.00;100749.41;4995696;28;20041;-77
2023/01/10 08:56:01;;;;;;;6.05;2.35;;;;;;;6.53;100.00;100758.22;4992817;28;20030;-77
2023/01/10 08:58:26;;;;;;;5.78;2.35;;;;;;;6.55;100.00;100756.50;4996111;28;20493;-77
2023/01/10 09:00:52;;;;;;;4.63;2.20;;;;;;;6.56;100.00;100750.38;4995346;28;20061;-77
2023/01/10 09:03:18;;;;;;;4.95;1.65;;;;;;;6.58;100.00;100761.78;4996145;28;20038;-77
2023/01/10 09:05:43;;;;;;;5.30;1.83;;;;;;;6.59;100.00;100774.03;4994286;28;20110;-77
2023/01/10 09:08:09;;;;;;;5.57;2.33;;;;;;;6.66;100.00;100768.88;4994889;28;20188;-77
2023/01/10 09:10:34;;;;;;;2.97;1.70;;;;;;;6.82;100.00;100768.22;4995206;28;20038;-77
2023/01/10 09:13:00;;;;;;;2.30;0.95;;;;;;;6.71;100.00;100761.97;4993414;28;20164;-77
2023/01/10 09:15:32;;;;;;;3.70;1.00;;;;;;;6.66;100.00;100768.88;5010109;28;20030;-77
2023/01/10 09:18:03;;;;;;;1.98;1.23;;;;;;;6.64;100.00;100774.09;4995892;28;20035;-77
2023/01/10 09:20:29;;;;;;;7.25;1.65;;;;;;;6.72;100.00;100774.22;5004911;28;20105;-77
2023/01/10 09:22:56;;;;;;;2.10;1.05;;;;;;;6.74;100.00;100777.75;4995325;28;20042;-77
2023/01/10 09:25:22;;;;;;;2.25;1.27;;;;;;;6.77;100.00;100791.75;4994803;28;20042;-77
2023/01/10 09:27:56;;;;;;;2.28;1.02;;;;;;;6.88;100.00;100798.91;4995353;28;20042;-77
2023/01/10 09:30:22;;;;;;;2.88;1.40;;;;;;;6.92;100.00;100817.34;4991944;28;20042;-77
2023/01/10 09:32:51;;;;;;;3.15;0.95;;;;;;;6.89;100.00;100812.06;4995809;28;20049;-77
2023/01/10 09:35:16;;;;;;;2.88;1.27;;;;;;;6.96;100.00;100813.88;4995380;28;20042;-77
2023/01/10 09:37:42;;;;;;;3.60;1.45;;;;;;;6.93;100.00;100811.22;4991206;28;20382;-77
2023/01/10 09:40:13;;;;;;;1.90;0.75;;;;;;;6.87;100.00;100819.00;4995446;28;20386;-77
2023/01/10 09:42:50;;;;;;;3.23;1.07;;;;;;;6.91;100.00;100831.28;4986743;28;20034;-77
2023/01/10 09:45:45;;;;;;;7.18;1.80;;;;;;;6.95;100.00;100830.50;4993469;28;20089;-77
2023/01/10 09:48:33;;;;;;;6.25;1.15;;;;;;;6.92;100.00;100838.31;4994944;28;20050;-76
2023/01/10 09:51:29;;;;;;;3.97;1.20;;;;;;;7.00;100.00;100844.56;4995318;28;20050;-77
2023/01/10 09:53:59;;;;;;;5.47;0.90;;;;;;;7.07;100.00;100844.63;4983544;28;20070;-77
2023/01/10 09:56:26;;;;;;;2.13;1.33;;;;;;;7.15;100.00;100841.25;4994841;28;20038;-77
2023/01/10 09:58:52;;;;;;;2.50;0.80;;;;;;;7.18;100.00;100832.53;4995295;28;20037;-77
2023/01/10 10:01:26;;;;;;;1.88;0.68;;;;;;;7.21;100.00;100836.06;4994947;28;20038;-77
2023/01/10 10:04:04;;;;;;;1.48;0.70;;;;;;;7.28;100.00;100831.75;4991111;28;20046;-77
2023/01/10 10:06:29;;;;;;;4.47;1.40;;;;;;;7.35;100.00;100825.72;4992643;28;20034;-77
2023/01/10 10:08:56;;;;;;;4.28;1.73;;;;;;;7.43;100.00;100826.69;4992278;28;20452;-77
2023/01/10 10:11:24;;;;;;;3.63;1.02;;;;;;;7.52;100.00;100830.28;4993109;28;20088;-77
2023/01/10 10:14:24;;;;;;;3.38;1.33;;;;;;;7.51;100.00;100818.03;4992787;28;20034;-77
2023/01/10 10:17:32;;;;;;;3.10;0.85;;;;;;;7.64;100.00;100812.91;4989146;28;20034;-77
2023/01/10 10:20:09;;;;;;;1.90;1.20;;;;;;;7.87;100.00;100823.66;4990850;28;20101;-76
2023/01/10 10:22:52;;;;;;;0.20;0.20;;;;;;;7.99;100.00;100824.63;4994700;28;20062;-77
2023/01/10 10:25:36;;;;;;;0.20;0.20;;;;;;;7.92;100.00;100826.34;4994802;28;20421;-76
2023/01/10 10:28:36;;;;;;;0.40;0.40;;;;;;;7.83;100.00;100816.63;4994172;28;20062;-77
2023/01/10 10:31:29;;;;;;;0.40;0.40;;;;;;;7.80;100.00;100829.72;4991215;28;20042;-77
2023/01/10 10:34:19;;;;;;;0.40;0.40;;;;;;;8.03;100.00;100834.31;4991239;28;20034;-76
2023/01/10 10:37:04;;;;;;;0.40;0.40;;;;;;;8.11;96.05;100836.13;4986591;28;20054;-77
2023/01/10 10:39:42;;;;;;;0.50;0.50;;;;;;;7.97;94.55;100835.16;4991067;28;20098;-76
2023/01/10 10:42:12;;;;;;;0.50;0.50;;;;;;;7.97;94.36;100836.91;4994735;28;20810;-77
2023/01/10 10:44:59;;;;;;;0.40;0.40;;;;;;;7.93;94.10;100835.09;4994971;28;20038;-77
2023/01/10 10:47:30;;;;;;;0.40;0.40;;;;;;;7.82;93.77;100838.50;4993141;28;20401;-77
2023/01/10 10:50:10;;;;;;;0.55;0.55;;;;;;;7.79;93.68;100843.72;4994185;28;20440;-76
2023/01/10 10:52:36;;;;;;;0.52;0.52;;;;;;;7.75;93.16;100852.44;4992207;28;20034;-77
2023/01/10 10:55:06;;;;;;;0.50;0.50;;;;;;;7.80;93.77;100860.38;4993999;28;20423;-77
2023/01/10 10:57:37;;;;;;;0.50;0.50;;;;;;;7.76;92.91;100858.59;4992347;28;20129;-77
2023/01/10 11:00:04;;;;;;;0.40;0.40;;;;;;;7.80;93.45;100861.25;4994786;28;20034;-76
2023/01/10 11:02:32;;;;;;;0.40;0.40;;;;;;;7.81;92.50;100868.28;5012789;28;20038;-78
2023/01/10 11:05:16;;;;;;;0.40;0.40;;;;;;;7.85;92.86;100848.16;4992537;28;20589;-76
2023/01/10 11:07:43;;;;;;;0.40;0.40;;;;;;;7.87;94.76;100849.94;4993843;28;20508;-77
2023/01/10 11:10:33;;;;;;;0.40;0.40;;;;;;;7.90;94.75;100851.72;4994547;28;20038;-76
2023/01/10 11:13:01;;;;;;;0.50;0.50;;;;;;;7.85;95.83;100854.28;4997789;28;20413;-76
2023/01/10 11:15:42;;;;;;;0.60;0.60;;;;;;;7.89;95.76;100857.84;4995139;28;20040;-76
2023/01/10 11:18:13;;;;;;;0.70;0.70;;;;;;;7.90;95.38;100865.72;4991415;28;20106;-77
2023/01/10 11:20:49;;;;;;;0.55;0.55;;;;;;;7.89;95.72;100865.72;5002353;28;20409;-76
2023/01/10 11:23:36;;;;;;;0.50;0.50;;;;;;;7.99;95.32;100869.31;4990949;28;20056;-76
2023/01/10 11:26:03;;;;;;;0.50;0.50;;;;;;;7.98;94.25;100860.56;4992227;28;20130;-76
2023/01/10 11:28:31;;;;;;;0.60;0.60;;;;;;;8.12;94.13;100847.53;4994025;28;20409;-76
2023/01/10 11:30:58;;;;;;;0.50;0.50;;;;;;;8.10;94.87;100854.53;4993429;28;20041;-76
2023/01/10 11:33:28;;;;;;;0.40;0.40;;;;;;;8.16;94.65;100851.97;4993404;28;20101;-76
2023/01/10 11:36:00;;;;;;;0.30;0.30;;;;;;;8.18;93.88;100844.97;4989978;28;20038;-76
2023/01/10 11:38:28;;;;;;;0.47;0.47;;;;;;;8.04;95.08;100838.69;4990956;28;20032;-76
2023/01/10 11:41:05;;;;;;;0.40;0.40;;;;;;;7.96;95.26;100849.13;4991857;28;20096;-76
2023/01/10 11:43:37;;;;;;;0.40;0.40;;;;;;;7.91;95.50;100856.09;4990666;28;20405;-76
2023/01/10 11:46:11;;;;;;;0.40;0.40;;;;;;;8.00;95.21;100860.59;4992303;28;20042;-76